createdAt,value
2018-04-23T00:00:04.801Z,930.90
2018-04-23T00:01:04.949Z,930.88
2018-04-23T00:02:04.876Z,930.88
2018-04-23T00:03:05.506Z,930.91
2018-04-23T00:05:05.031Z,930.94
2018-04-23T00:06:05.602Z,930.95
2018-04-23T00:07:05.109Z,930.95
2018-04-23T00:08:05.162Z,930.94
2018-04-23T00:09:05.197Z,930.97
2018-04-23T00:10:05.256Z,930.93
2018-04-23T00:11:05.391Z,930.91
2018-04-23T00:12:05.437Z,930.88
2018-04-23T00:14:05.441Z,930.90
2018-04-23T00:15:05.686Z,930.92
2018-04-23T00:16:05.508Z,930.92
2018-04-23T00:18:05.614Z,930.88
2018-04-23T00:19:05.673Z,930.89
2018-04-23T00:20:05.689Z,930.89
2018-04-23T00:21:05.747Z,930.89
2018-04-23T00:22:05.910Z,930.86
2018-04-23T00:23:05.868Z,930.90
2018-04-23T00:24:05.886Z,930.92
2018-04-23T00:25:05.921Z,930.94
2018-04-23T00:26:05.966Z,930.90
2018-04-23T00:27:06.141Z,930.89
2018-04-23T00:29:06.132Z,930.91
2018-04-23T00:30:06.161Z,930.91
2018-04-23T00:32:06.267Z,930.90
2018-04-23T00:33:06.389Z,930.89
2018-04-23T00:34:06.896Z,930.83
2018-04-23T00:35:06.389Z,930.85
2018-04-23T00:36:06.450Z,930.85
2018-04-23T00:37:06.503Z,930.86
2018-04-23T00:38:06.646Z,930.86
2018-04-23T00:40:06.636Z,930.89
2018-04-23T00:41:06.672Z,930.93
2018-04-23T00:42:06.708Z,930.90
2018-04-23T00:43:06.773Z,930.88
2018-04-23T00:44:06.899Z,930.91
2018-04-23T00:45:06.864Z,930.87
2018-04-23T00:46:06.886Z,930.89
2018-04-23T00:47:06.970Z,930.88
2018-04-23T00:48:07.013Z,930.92
2018-04-23T00:49:07.055Z,930.91
2018-04-23T00:50:07.168Z,930.89
2018-04-23T00:51:07.169Z,930.90
2018-04-23T00:52:07.172Z,930.88
2018-04-23T00:53:07.213Z,930.92
2018-04-23T00:54:07.266Z,930.91
2018-04-23T00:55:07.324Z,930.88
2018-04-23T00:56:07.463Z,930.89
2018-04-23T00:57:07.400Z,930.89
2018-04-23T00:58:07.444Z,930.86
2018-04-23T00:59:07.505Z,930.84
2018-04-23T01:00:07.572Z,930.83
2018-04-23T01:01:07.574Z,930.84
2018-04-23T01:02:07.740Z,930.80
2018-04-23T01:03:07.677Z,930.75
2018-04-23T01:05:07.777Z,930.76
2018-04-23T01:07:07.884Z,930.73
2018-04-23T01:08:08.029Z,930.73
2018-04-23T01:09:07.947Z,930.74
2018-04-23T01:10:07.988Z,930.73
2018-04-23T01:11:08.039Z,930.71
2018-04-23T01:12:08.100Z,930.71
2018-04-23T01:13:08.130Z,930.75
2018-04-23T01:14:08.298Z,930.74
2018-04-23T01:15:08.229Z,930.76
2018-04-23T01:17:08.308Z,930.76
2018-04-23T01:18:08.357Z,930.76
2018-04-23T01:19:08.424Z,930.78
2018-04-23T01:20:08.449Z,930.80
2018-04-23T01:21:08.505Z,930.77
2018-04-23T01:22:08.529Z,930.74
2018-04-23T01:23:08.610Z,930.76
2018-04-23T01:24:08.753Z,930.79
2018-04-23T01:25:08.791Z,930.74
2018-04-23T01:26:08.710Z,930.75
2018-04-23T01:27:08.786Z,930.72
2018-04-23T01:28:08.828Z,930.68
2018-04-23T01:29:08.890Z,930.70
2018-04-23T01:30:08.933Z,930.69
2018-04-23T01:31:09.278Z,930.70
2018-04-23T01:32:09.037Z,930.69
2018-04-23T01:33:09.055Z,930.70
2018-04-23T01:34:09.097Z,930.71
2018-04-23T01:35:09.149Z,930.69
2018-04-23T01:36:09.276Z,930.72
2018-04-23T01:37:09.224Z,930.70
2018-04-23T01:38:09.274Z,930.69
2018-04-23T01:39:09.511Z,930.63
2018-04-23T01:40:09.345Z,930.66
2018-04-23T01:41:09.409Z,930.65
2018-04-23T01:43:09.478Z,930.63
2018-04-23T01:44:09.561Z,930.63
2018-04-23T01:45:09.600Z,930.62
2018-04-23T01:46:09.627Z,930.63
2018-04-23T01:47:09.686Z,930.64
2018-04-23T01:48:09.819Z,930.62
2018-04-23T01:49:09.986Z,930.66
2018-04-23T01:50:09.820Z,930.66
2018-04-23T01:51:09.851Z,930.67
2018-04-23T01:52:09.903Z,930.69
2018-04-23T01:53:09.969Z,930.71
2018-04-23T01:54:10.124Z,930.71
2018-04-23T01:55:10.068Z,930.67
2018-04-23T01:56:10.090Z,930.66
2018-04-23T01:57:10.141Z,930.66
2018-04-23T01:58:10.179Z,930.71
2018-04-23T01:59:10.332Z,930.70
2018-04-23T02:00:10.274Z,930.71
2018-04-23T02:01:10.329Z,930.70
2018-04-23T02:02:10.416Z,930.73
2018-04-23T02:03:10.459Z,930.72
2018-04-23T02:04:10.449Z,930.73
2018-04-23T02:05:10.722Z,930.71
2018-04-23T02:06:10.701Z,930.69
2018-04-23T02:07:10.666Z,930.68
2018-04-23T02:08:10.637Z,930.69
2018-04-23T02:09:10.735Z,930.64
2018-04-23T02:10:10.742Z,930.69
2018-04-23T02:11:10.976Z,930.70
2018-04-23T02:12:11.122Z,930.67
2018-04-23T02:13:10.864Z,930.65
2018-04-23T02:14:10.931Z,930.66
2018-04-23T02:15:10.937Z,930.64
2018-04-23T02:16:11.039Z,930.65
2018-04-23T02:17:11.085Z,930.63
2018-04-23T02:18:11.323Z,930.63
2018-04-23T02:19:11.128Z,930.62
2018-04-23T02:20:11.175Z,930.59
2018-04-23T02:21:11.228Z,930.57
2018-04-23T02:23:11.516Z,930.58
2018-04-23T02:24:11.353Z,930.60
2018-04-23T02:25:11.389Z,930.57
2018-04-23T02:26:11.475Z,930.58
2018-04-23T02:27:11.534Z,930.60
2018-04-23T02:29:11.567Z,930.57
2018-04-23T02:30:11.617Z,930.54
2018-04-23T02:31:11.679Z,930.51
2018-04-23T02:32:11.725Z,930.47
2018-04-23T02:33:11.862Z,930.47
2018-04-23T02:34:11.802Z,930.46
2018-04-23T02:35:11.874Z,930.45
2018-04-23T02:36:11.913Z,930.50
2018-04-23T02:37:11.932Z,930.54
2018-04-23T02:38:12.096Z,930.53
2018-04-23T02:39:12.013Z,930.49
2018-04-23T02:41:12.105Z,930.51
2018-04-23T02:42:12.378Z,930.50
2018-04-23T02:43:12.212Z,930.52
2018-04-23T02:44:12.349Z,930.50
2018-04-23T02:45:12.306Z,930.49
2018-04-23T02:46:12.353Z,930.46
2018-04-23T02:47:12.393Z,930.48
2018-04-23T02:48:12.440Z,930.46
2018-04-23T02:49:12.475Z,930.45
2018-04-23T02:50:12.610Z,930.48
2018-04-23T02:51:12.552Z,930.46
2018-04-23T02:52:12.642Z,930.47
2018-04-23T02:53:12.660Z,930.43
2018-04-23T02:54:12.710Z,930.45
2018-04-23T02:55:12.843Z,930.42
2018-04-23T02:56:12.820Z,930.43
2018-04-23T02:57:12.836Z,930.41
2018-04-23T02:58:12.909Z,930.39
2018-04-23T02:59:12.924Z,930.40
2018-04-23T03:00:13.008Z,930.37
2018-04-23T03:01:13.132Z,930.39
2018-04-23T03:02:13.081Z,930.35
2018-04-23T03:04:13.169Z,930.44
2018-04-23T03:05:13.416Z,930.42
2018-04-23T03:06:13.272Z,930.39
2018-04-23T03:07:13.377Z,930.40
2018-04-23T03:08:13.347Z,930.41
2018-04-23T03:09:13.374Z,930.38
2018-04-23T03:10:13.444Z,930.35
2018-04-23T03:11:13.469Z,930.37
2018-04-23T03:12:13.727Z,930.32
2018-04-23T03:13:13.708Z,930.31
2018-04-23T03:14:13.632Z,930.32
2018-04-23T03:15:13.665Z,930.38
2018-04-23T03:16:13.723Z,930.36
2018-04-23T03:17:13.756Z,930.36
2018-04-23T03:18:13.899Z,930.34
2018-04-23T03:19:13.832Z,930.36
2018-04-23T03:20:13.879Z,930.34
2018-04-23T03:21:13.949Z,930.37
2018-04-23T03:22:13.974Z,930.29
2018-04-23T03:23:14.036Z,930.31
2018-04-23T03:24:14.162Z,930.26
2018-04-23T03:25:14.138Z,930.27
2018-04-23T03:26:14.171Z,930.27
2018-04-23T03:27:14.219Z,930.26
2018-04-23T03:28:14.248Z,930.27
2018-04-23T03:29:14.279Z,930.27
2018-04-23T03:30:14.419Z,930.26
2018-04-23T03:31:14.388Z,930.26
2018-04-23T03:32:14.454Z,930.23
2018-04-23T03:33:14.468Z,930.22
2018-04-23T03:34:14.498Z,930.24
2018-04-23T03:35:14.605Z,930.20
2018-04-23T03:37:14.651Z,930.21
2018-04-23T03:38:14.692Z,930.19
2018-04-23T03:39:14.726Z,930.18
2018-04-23T03:40:14.807Z,930.18
2018-04-23T03:41:14.832Z,930.20
2018-04-23T03:42:15.514Z,930.19
2018-04-23T03:43:15.106Z,930.15
2018-04-23T03:44:14.968Z,930.15
2018-04-23T03:45:15.019Z,930.16
2018-04-23T03:46:15.061Z,930.16
2018-04-23T03:47:15.082Z,930.15
2018-04-23T03:48:15.247Z,930.15
2018-04-23T03:49:15.197Z,930.12
2018-04-23T03:50:15.239Z,930.11
2018-04-23T03:51:15.279Z,930.11
2018-04-23T03:52:15.321Z,930.07
2018-04-23T03:53:15.367Z,930.12
2018-04-23T03:54:15.511Z,930.10
2018-04-23T03:55:15.470Z,930.06
2018-04-23T03:56:15.490Z,930.05
2018-04-23T03:57:15.533Z,930.01
2018-04-23T03:58:15.593Z,930.01
2018-04-23T03:59:16.192Z,930.00
2018-04-23T04:00:15.798Z,930.01
2018-04-23T04:01:15.748Z,930.00
2018-04-23T04:04:15.876Z,930.01
2018-04-23T04:05:15.901Z,930.00
2018-04-23T04:06:16.045Z,929.99
2018-04-23T04:07:15.988Z,929.94
2018-04-23T04:08:16.062Z,929.93
2018-04-23T04:10:16.691Z,929.92
2018-04-23T04:11:16.163Z,929.92
2018-04-23T04:12:16.338Z,929.94
2018-04-23T04:13:16.269Z,929.99
2018-04-23T04:14:16.301Z,929.92
2018-04-23T04:15:16.558Z,929.94
2018-04-23T04:16:16.433Z,929.92
2018-04-23T04:17:16.460Z,929.90
2018-04-23T04:18:16.606Z,929.87
2018-04-23T04:19:16.532Z,929.88
2018-04-23T04:20:16.575Z,929.85
2018-04-23T04:21:16.639Z,929.88
2018-04-23T04:22:16.666Z,929.88
2018-04-23T04:23:16.728Z,929.89
2018-04-23T04:24:16.883Z,929.86
2018-04-23T04:25:16.820Z,929.85
2018-04-23T04:26:16.860Z,929.82
2018-04-23T04:27:16.895Z,929.85
2018-04-23T04:28:16.938Z,929.81
2018-04-23T04:29:17.001Z,929.83
2018-04-23T04:30:17.155Z,929.84
2018-04-23T04:31:17.090Z,929.84
2018-04-23T04:32:17.145Z,929.82
2018-04-23T04:33:17.149Z,929.87
2018-04-23T04:34:17.228Z,929.82
2018-04-23T04:35:17.252Z,929.81
2018-04-23T04:36:17.311Z,929.79
2018-04-23T04:37:17.342Z,929.82
2018-04-23T04:38:17.440Z,929.80
2018-04-23T04:39:17.452Z,929.81
2018-04-23T04:40:17.583Z,929.84
2018-04-23T04:41:17.609Z,929.83
2018-04-23T04:42:17.575Z,929.84
2018-04-23T04:43:17.607Z,929.84
2018-04-23T04:44:17.670Z,929.78
2018-04-23T04:45:17.696Z,929.80
2018-04-23T04:46:17.736Z,929.80
2018-04-23T04:47:17.778Z,929.78
2018-04-23T04:48:17.846Z,929.77
2018-04-23T04:49:17.891Z,929.73
2018-04-23T04:50:17.939Z,929.76
2018-04-23T04:51:18.095Z,929.77
2018-04-23T04:52:18.013Z,929.74
2018-04-23T04:53:18.057Z,929.73
2018-04-23T04:54:18.120Z,929.72
2018-04-23T04:55:18.163Z,929.71
2018-04-23T04:56:18.295Z,929.70
2018-04-23T04:57:18.254Z,929.69
2018-04-23T04:58:18.302Z,929.67
2018-04-23T04:59:18.329Z,929.69
2018-04-23T05:00:18.371Z,929.64
2018-04-23T05:01:18.416Z,929.66
2018-04-23T05:02:18.639Z,929.63
2018-04-23T05:03:18.506Z,929.68
2018-04-23T05:04:18.557Z,929.65
2018-04-23T05:05:18.614Z,929.67
2018-04-23T05:06:18.647Z,929.69
2018-04-23T05:07:18.816Z,929.64
2018-04-23T05:08:18.730Z,929.65
2018-04-23T05:09:18.779Z,929.63
2018-04-23T05:10:18.814Z,929.60
2018-04-23T05:11:18.866Z,929.64
2018-04-23T05:12:18.928Z,929.59
2018-04-23T05:13:18.991Z,929.60
2018-04-23T05:14:18.994Z,929.57
2018-04-23T05:15:19.075Z,929.58
2018-04-23T05:16:19.095Z,929.57
2018-04-23T05:17:19.255Z,929.57
2018-04-23T05:18:19.200Z,929.57
2018-04-23T05:19:19.224Z,929.55
2018-04-23T05:20:19.861Z,929.56
2018-04-23T05:21:19.319Z,929.55
2018-04-23T05:22:19.455Z,929.56
2018-04-23T05:23:19.421Z,929.53
2018-04-23T05:24:19.466Z,929.54
2018-04-23T05:25:19.514Z,929.54
2018-04-23T05:26:19.555Z,929.52
2018-04-23T05:27:19.594Z,929.57
2018-04-23T05:28:19.790Z,929.52
2018-04-23T05:29:19.679Z,929.50
2018-04-23T05:30:19.729Z,929.47
2018-04-23T05:31:19.784Z,929.52
2018-04-23T05:33:19.971Z,929.46
2018-04-23T05:34:19.917Z,929.47
2018-04-23T05:35:19.957Z,929.45
2018-04-23T05:36:20.027Z,929.48
2018-04-23T05:37:20.259Z,929.47
2018-04-23T05:38:20.099Z,929.51
2018-04-23T05:39:20.126Z,929.47
2018-04-23T05:40:20.404Z,929.49
2018-04-23T05:41:20.211Z,929.49
2018-04-23T05:42:20.286Z,929.50
2018-04-23T05:43:20.450Z,929.48
2018-04-23T05:44:20.359Z,929.51
2018-04-23T05:45:20.418Z,929.52
2018-04-23T05:46:20.471Z,929.49
2018-04-23T05:47:20.527Z,929.49
2018-04-23T05:48:20.629Z,929.52
2018-04-23T05:50:20.643Z,929.45
2018-04-23T05:51:20.689Z,929.46
2018-04-23T05:52:20.733Z,929.46
2018-04-23T05:53:20.780Z,929.43
2018-04-23T05:54:20.813Z,929.45
2018-04-23T05:55:20.856Z,929.47
2018-04-23T05:56:20.930Z,929.49
2018-04-23T05:57:20.958Z,929.49
2018-04-23T05:58:21.121Z,929.50
2018-04-23T05:59:21.031Z,929.50
2018-04-23T06:00:21.092Z,929.52
2018-04-23T06:01:21.130Z,929.53
2018-04-23T06:02:21.188Z,929.48
2018-04-23T06:03:21.312Z,929.48
2018-04-23T06:04:21.283Z,929.44
2018-04-23T06:05:21.333Z,929.45
2018-04-23T06:06:21.565Z,929.42
2018-04-23T06:07:21.403Z,929.43
2018-04-23T06:08:21.452Z,929.42
2018-04-23T06:09:21.599Z,929.42
2018-04-23T06:10:21.539Z,929.39
2018-04-23T06:11:21.581Z,929.40
2018-04-23T06:12:21.621Z,929.35
2018-04-23T06:13:21.646Z,929.40
2018-04-23T06:14:21.724Z,929.38
2018-04-23T06:15:21.847Z,929.38
2018-04-23T06:16:21.781Z,929.36
2018-04-23T06:17:22.417Z,929.33
2018-04-23T06:18:22.073Z,929.38
2018-04-23T06:19:21.940Z,929.36
2018-04-23T06:21:22.117Z,929.41
2018-04-23T06:22:22.088Z,929.44
2018-04-23T06:24:22.169Z,929.48
2018-04-23T06:26:22.254Z,929.46
2018-04-23T06:28:22.332Z,929.52
2018-04-23T06:29:22.433Z,929.48
2018-04-23T06:30:22.413Z,929.47
2018-04-23T06:31:22.450Z,929.53
2018-04-23T06:32:22.507Z,929.53
2018-04-23T06:33:22.665Z,929.51
2018-04-23T06:34:22.604Z,929.49
2018-04-23T06:35:22.652Z,929.53
2018-04-23T06:36:22.691Z,929.50
2018-04-23T06:37:22.734Z,929.49
2018-04-23T06:38:22.846Z,929.48
2018-04-23T06:39:22.904Z,929.44
2018-04-23T06:40:22.872Z,929.47
2018-04-23T06:41:22.901Z,929.47
2018-04-23T06:42:22.957Z,929.46
2018-04-23T06:43:23.034Z,929.44
2018-04-23T06:44:23.127Z,929.47
2018-04-23T06:45:23.079Z,929.47
2018-04-23T06:46:23.159Z,929.47
2018-04-23T06:47:23.180Z,929.50
2018-04-23T06:48:23.233Z,929.47
2018-04-23T06:49:23.382Z,929.42
2018-04-23T06:50:23.325Z,929.44
2018-04-23T06:51:23.381Z,929.41
2018-04-23T06:52:23.407Z,929.41
2018-04-23T06:53:23.452Z,929.37
2018-04-23T06:54:23.597Z,929.32
2018-04-23T06:55:23.554Z,929.34
2018-04-23T06:56:23.609Z,929.31
2018-04-23T06:57:23.601Z,929.31
2018-04-23T06:58:23.671Z,929.31
2018-04-23T06:59:23.723Z,929.34
2018-04-23T07:00:23.758Z,929.29
2018-04-23T07:01:23.816Z,929.30
2018-04-23T07:02:23.826Z,929.31
2018-04-23T07:03:23.905Z,929.32
2018-04-23T07:04:24.037Z,929.29
2018-04-23T07:05:23.974Z,929.33
2018-04-23T07:06:24.028Z,929.29
2018-04-23T07:07:24.076Z,929.34
2018-04-23T07:08:24.093Z,929.35
2018-04-23T07:09:24.254Z,929.39
2018-04-23T07:10:24.198Z,929.42
2018-04-23T07:11:24.244Z,929.47
2018-04-23T07:12:24.293Z,929.46
2018-04-23T07:13:24.323Z,929.39
2018-04-23T07:14:24.399Z,929.42
2018-04-23T07:15:24.533Z,929.37
2018-04-23T07:16:24.451Z,929.34
2018-04-23T07:17:24.522Z,929.36
2018-04-23T07:18:24.547Z,929.35
2018-04-23T07:19:24.630Z,929.35
2018-04-23T07:20:24.666Z,929.35
2018-04-23T07:21:24.699Z,929.33
2018-04-23T07:22:24.730Z,929.35
2018-04-23T07:23:24.778Z,929.35
2018-04-23T07:24:24.804Z,929.36
2018-04-23T07:25:24.990Z,929.34
2018-04-23T07:26:25.011Z,929.34
2018-04-23T07:27:24.957Z,929.32
2018-04-23T07:28:25.021Z,929.37
2018-04-23T07:29:25.029Z,929.35
2018-04-23T07:30:25.113Z,929.36
2018-04-23T07:31:25.139Z,929.37
2018-04-23T07:32:25.173Z,929.37
2018-04-23T07:33:25.228Z,929.41
2018-04-23T07:34:25.292Z,929.39
2018-04-23T07:35:25.319Z,929.39
2018-04-23T07:36:25.466Z,929.39
2018-04-23T07:37:25.487Z,929.42
2018-04-23T07:38:28.490Z,929.41
2018-04-23T07:39:25.488Z,929.41
2018-04-23T07:40:25.558Z,929.34
2018-04-23T07:41:25.604Z,929.37
2018-04-23T07:42:25.609Z,929.38
2018-04-23T07:43:25.655Z,929.38
2018-04-23T07:44:25.720Z,929.41
2018-04-23T07:45:25.959Z,929.38
2018-04-23T07:46:25.844Z,929.38
2018-04-23T07:47:25.951Z,929.41
2018-04-23T07:48:25.875Z,929.41
2018-04-23T07:49:25.937Z,929.44
2018-04-23T07:50:25.965Z,929.45
2018-04-23T07:51:26.035Z,929.48
2018-04-23T07:52:26.190Z,929.46
2018-04-23T07:53:26.324Z,929.44
2018-04-23T07:54:26.150Z,929.46
2018-04-23T07:55:26.199Z,929.47
2018-04-23T07:56:26.236Z,929.44
2018-04-23T07:58:26.331Z,929.41
2018-04-23T07:59:26.389Z,929.42
2018-04-23T08:00:26.424Z,929.43
2018-04-23T08:01:26.472Z,929.42
2018-04-23T08:02:26.595Z,929.47
2018-04-23T08:03:26.551Z,929.42
2018-04-23T08:04:26.600Z,929.47
2018-04-23T08:05:26.660Z,929.48
2018-04-23T08:06:26.711Z,929.45
2018-04-23T08:07:26.852Z,929.52
2018-04-23T08:08:26.789Z,929.49
2018-04-23T08:09:26.810Z,929.50
2018-04-23T08:10:26.869Z,929.53
2018-04-23T08:11:26.916Z,929.49
2018-04-23T08:12:26.975Z,929.52
2018-04-23T08:13:26.991Z,929.52
2018-04-23T08:14:27.578Z,929.54
2018-04-23T08:15:27.085Z,929.55
2018-04-23T08:16:27.146Z,929.51
2018-04-23T08:17:27.255Z,929.58
2018-04-23T08:18:27.212Z,929.58
2018-04-23T08:19:27.268Z,929.59
2018-04-23T08:20:27.490Z,929.57
2018-04-23T08:21:27.345Z,929.55
2018-04-23T08:22:27.496Z,929.59
2018-04-23T08:23:27.444Z,929.57
2018-04-23T08:24:27.463Z,929.60
2018-04-23T08:25:28.182Z,929.57
2018-04-23T08:26:27.584Z,929.64
2018-04-23T08:27:27.614Z,929.63
2018-04-23T08:28:27.743Z,929.60
2018-04-23T08:29:27.710Z,929.60
2018-04-23T08:30:27.774Z,929.60
2018-04-23T08:31:27.800Z,929.62
2018-04-23T08:33:27.874Z,929.60
2018-04-23T08:34:28.033Z,929.57
2018-04-23T08:35:27.961Z,929.59
2018-04-23T08:36:27.997Z,929.61
2018-04-23T08:37:28.079Z,929.62
2018-04-23T08:38:28.095Z,929.60
2018-04-23T08:39:28.129Z,929.63
2018-04-23T08:40:28.314Z,929.61
2018-04-23T08:41:28.242Z,929.64
2018-04-23T08:42:28.256Z,929.68
2018-04-23T08:43:28.336Z,929.62
2018-04-23T08:44:28.350Z,929.69
2018-04-23T08:45:28.538Z,929.63
2018-04-23T08:46:28.440Z,929.69
2018-04-23T08:47:28.482Z,929.69
2018-04-23T08:48:28.741Z,929.72
2018-04-23T08:49:28.588Z,929.79
2018-04-23T08:50:28.658Z,929.78
2018-04-23T08:51:28.762Z,929.82
2018-04-23T08:52:28.723Z,929.86
2018-04-23T08:53:28.753Z,929.88
2018-04-23T08:54:28.799Z,929.90
2018-04-23T08:55:28.837Z,929.91
2018-04-23T08:56:29.003Z,929.92
2018-04-23T08:57:28.925Z,929.92
2018-04-23T08:58:28.982Z,929.92
2018-04-23T08:59:29.010Z,929.93
2018-04-23T09:00:29.067Z,929.94
2018-04-23T09:01:29.142Z,929.92
2018-04-23T09:02:29.259Z,929.94
2018-04-23T09:03:29.195Z,929.98
2018-04-23T09:04:29.232Z,930.02
2018-04-23T09:05:29.284Z,930.01
2018-04-23T09:06:29.332Z,929.99
2018-04-23T09:07:29.365Z,930.06
2018-04-23T09:08:29.403Z,930.00
2018-04-23T09:09:29.446Z,930.06
2018-04-23T09:10:29.513Z,930.02
2018-04-23T09:11:29.570Z,930.03
2018-04-23T09:12:29.698Z,930.01
2018-04-23T09:13:29.623Z,930.04
2018-04-23T09:14:29.673Z,930.06
2018-04-23T09:15:29.720Z,930.03
2018-04-23T09:16:29.772Z,930.04
2018-04-23T09:17:29.890Z,930.08
2018-04-23T09:18:29.822Z,930.03
2018-04-23T09:19:29.896Z,930.03
2018-04-23T09:20:29.920Z,930.03
2018-04-23T09:21:29.964Z,930.06
2018-04-23T09:22:30.528Z,930.08
2018-04-23T09:23:30.189Z,930.01
2018-04-23T09:24:30.643Z,930.07
2018-04-23T09:25:30.153Z,930.08
2018-04-23T09:26:30.200Z,930.08
2018-04-23T09:27:30.227Z,930.15
2018-04-23T09:28:30.394Z,930.14
2018-04-23T09:29:30.331Z,930.16
2018-04-23T09:30:30.369Z,930.21
2018-04-23T09:31:30.438Z,930.19
2018-04-23T09:32:30.441Z,930.19
2018-04-23T09:33:30.510Z,930.22
2018-04-23T09:34:30.536Z,930.23
2018-04-23T09:35:30.566Z,930.23
2018-04-23T09:36:30.635Z,930.26
2018-04-23T09:37:30.665Z,930.25
2018-04-23T09:38:30.831Z,930.30
2018-04-23T09:39:30.844Z,930.28
2018-04-23T09:40:30.817Z,930.33
2018-04-23T09:41:30.857Z,930.32
2018-04-23T09:42:30.904Z,930.30
2018-04-23T09:43:30.957Z,930.28
2018-04-23T09:44:31.029Z,930.32
2018-04-23T09:45:31.107Z,930.30
2018-04-23T09:46:31.054Z,930.32
2018-04-23T09:47:31.125Z,930.33
2018-04-23T09:48:31.149Z,930.33
2018-04-23T09:49:31.212Z,930.32
2018-04-23T09:50:31.550Z,930.33
2018-04-23T09:51:31.281Z,930.33
2018-04-23T09:52:31.307Z,930.37
2018-04-23T09:53:31.366Z,930.39
2018-04-23T09:54:31.444Z,930.40
2018-04-23T09:55:31.451Z,930.45
2018-04-23T09:56:31.586Z,930.44
2018-04-23T09:57:31.538Z,930.43
2018-04-23T09:58:31.585Z,930.47
2018-04-23T09:59:31.653Z,930.44
2018-04-23T10:00:31.677Z,930.51
2018-04-23T10:03:31.826Z,930.48
2018-04-23T10:04:31.866Z,930.50
2018-04-23T10:05:31.921Z,930.49
2018-04-23T10:06:31.941Z,930.52
2018-04-23T10:07:31.990Z,930.54
2018-04-23T10:08:32.135Z,930.47
2018-04-23T10:09:32.071Z,930.46
2018-04-23T10:10:32.150Z,930.47
2018-04-23T10:11:32.174Z,930.47
2018-04-23T10:12:32.208Z,930.49
2018-04-23T10:13:32.265Z,930.50
2018-04-23T10:14:32.310Z,930.43
2018-04-23T10:15:32.337Z,930.45
2018-04-23T10:16:32.376Z,930.47
2018-04-23T10:17:32.448Z,930.46
2018-04-23T10:18:33.145Z,930.46
2018-04-23T10:19:32.536Z,930.45
2018-04-23T10:20:32.590Z,930.46
2018-04-23T10:21:32.642Z,930.48
2018-04-23T10:22:32.662Z,930.52
2018-04-23T10:23:32.814Z,930.50
2018-04-23T10:24:32.771Z,930.53
2018-04-23T10:25:32.814Z,930.57
2018-04-23T10:26:32.879Z,930.52
2018-04-23T10:27:32.909Z,930.53
2018-04-23T10:28:32.932Z,930.58
2018-04-23T10:29:33.075Z,930.61
2018-04-23T10:30:33.034Z,930.61
2018-04-23T10:31:33.070Z,930.59
2018-04-23T10:32:33.114Z,930.62
2018-04-23T10:33:33.182Z,930.58
2018-04-23T10:34:33.314Z,930.62
2018-04-23T10:35:33.253Z,930.61
2018-04-23T10:36:33.319Z,930.64
2018-04-23T10:37:33.378Z,930.63
2018-04-23T10:38:33.417Z,930.64
2018-04-23T10:39:33.455Z,930.67
2018-04-23T10:40:33.638Z,930.77
2018-04-23T10:41:33.752Z,930.67
2018-04-23T10:42:33.603Z,930.67
2018-04-23T10:43:33.662Z,930.66
2018-04-23T10:44:33.686Z,930.70
2018-04-23T10:45:33.926Z,930.69
2018-04-23T10:46:33.882Z,930.69
2018-04-23T10:47:33.847Z,930.74
2018-04-23T10:48:33.869Z,930.76
2018-04-23T10:49:34.469Z,930.76
2018-04-23T10:50:34.561Z,930.75
2018-04-23T10:51:34.045Z,930.80
2018-04-23T10:52:34.084Z,930.77
2018-04-23T10:53:34.114Z,930.83
2018-04-23T10:54:34.170Z,930.80
2018-04-23T10:55:34.231Z,930.85
2018-04-23T10:56:34.372Z,930.85
2018-04-23T10:57:34.346Z,930.83
2018-04-23T10:58:34.583Z,930.85
2018-04-23T10:59:34.408Z,930.85
2018-04-23T11:00:34.495Z,930.86
2018-04-23T11:01:34.646Z,930.86
2018-04-23T11:02:34.574Z,930.86
2018-04-23T11:03:34.632Z,930.92
2018-04-23T11:04:34.681Z,930.93
2018-04-23T11:05:34.714Z,930.93
2018-04-23T11:06:34.795Z,930.91
2018-04-23T11:07:34.910Z,930.93
2018-04-23T11:08:34.864Z,930.93
2018-04-23T11:09:34.905Z,930.95
2018-04-23T11:10:34.974Z,930.93
2018-04-23T11:11:35.044Z,930.96
2018-04-23T11:12:35.160Z,930.96
2018-04-23T11:13:35.241Z,930.95
2018-04-23T11:14:35.168Z,930.96
2018-04-23T11:15:35.229Z,931.00
2018-04-23T11:16:35.307Z,931.01
2018-04-23T11:17:35.339Z,931.02
2018-04-23T11:18:35.374Z,931.06
2018-04-23T11:19:35.543Z,931.04
2018-04-23T11:20:35.487Z,931.05
2018-04-23T11:21:35.539Z,931.10
2018-04-23T11:22:35.572Z,931.13
2018-04-23T11:23:35.650Z,931.13
2018-04-23T11:24:35.791Z,931.08
2018-04-23T11:25:35.836Z,931.12
2018-04-23T11:26:35.828Z,931.14
2018-04-23T11:27:35.858Z,931.20
2018-04-23T11:28:35.899Z,931.22
2018-04-23T11:29:35.976Z,931.23
2018-04-23T11:30:36.017Z,931.19
2018-04-23T11:31:36.160Z,931.23
2018-04-23T11:32:36.090Z,931.29
2018-04-23T11:33:36.164Z,931.28
2018-04-23T11:34:36.262Z,931.26
2018-04-23T11:35:36.260Z,931.27
2018-04-23T11:36:36.417Z,931.24
2018-04-23T11:38:36.432Z,931.28
2018-04-23T11:39:36.494Z,931.27
2018-04-23T11:40:37.098Z,931.31
2018-04-23T11:41:36.607Z,931.31
2018-04-23T11:42:36.747Z,931.33
2018-04-23T11:43:36.796Z,931.34
2018-04-23T11:44:36.747Z,931.36
2018-04-23T11:45:36.813Z,931.34
2018-04-23T11:46:36.883Z,931.36
2018-04-23T11:47:36.900Z,931.29
2018-04-23T11:48:37.043Z,931.37
2018-04-23T11:49:37.015Z,931.38
2018-04-23T11:50:37.091Z,931.33
2018-04-23T11:51:37.117Z,931.34
2018-04-23T11:52:37.196Z,931.29
2018-04-23T11:53:37.214Z,931.34
2018-04-23T11:54:37.377Z,931.37
2018-04-23T11:55:37.443Z,931.35
2018-04-23T11:56:37.409Z,931.40
2018-04-23T11:57:37.648Z,931.39
2018-04-23T11:58:37.513Z,931.44
2018-04-23T11:59:37.547Z,931.45
2018-04-23T12:00:37.608Z,931.47
2018-04-23T12:01:37.785Z,931.47
2018-04-23T12:02:37.711Z,931.48
2018-04-23T12:03:37.775Z,931.51
2018-04-23T12:04:37.823Z,931.54
2018-04-23T12:05:37.912Z,931.51
2018-04-23T12:06:38.024Z,931.53
2018-04-23T12:07:38.077Z,931.49
2018-04-23T12:08:38.064Z,931.50
2018-04-23T12:09:38.084Z,931.47
2018-04-23T12:10:38.184Z,931.55
2018-04-23T12:11:38.214Z,931.56
2018-04-23T12:12:38.261Z,931.60
2018-04-23T12:13:38.411Z,931.61
2018-04-23T12:14:38.356Z,931.61
2018-04-23T12:15:38.431Z,931.59
2018-04-23T12:16:38.475Z,931.63
2018-04-23T12:17:38.543Z,931.66
2018-04-23T12:18:38.718Z,931.65
2018-04-23T12:19:38.627Z,931.67
2018-04-23T12:20:38.712Z,931.70
2018-04-23T12:21:38.788Z,931.72
2018-04-23T12:22:38.788Z,931.77
2018-04-23T12:23:38.857Z,931.80
2018-04-23T12:24:39.029Z,931.79
2018-04-23T12:25:38.979Z,931.78
2018-04-23T12:26:39.011Z,931.80
2018-04-23T12:27:39.109Z,931.76
2018-04-23T12:28:39.135Z,931.75
2018-04-23T12:29:39.180Z,931.75
2018-04-23T12:30:39.352Z,931.71
2018-04-23T12:31:39.300Z,931.74
2018-04-23T12:32:39.360Z,931.74
2018-04-23T12:33:39.435Z,931.76
2018-04-23T12:34:39.457Z,931.81
2018-04-23T12:35:39.633Z,931.73
2018-04-23T12:36:39.592Z,931.72
2018-04-23T12:37:39.624Z,931.76
2018-04-23T12:38:39.720Z,931.74
2018-04-23T12:39:39.808Z,931.75
2018-04-23T12:40:39.937Z,931.78
2018-04-23T12:41:39.840Z,931.79
2018-04-23T12:42:39.893Z,931.80
2018-04-23T12:43:39.952Z,931.79
2018-04-23T12:44:40.043Z,931.80
2018-04-23T12:45:40.187Z,931.78
2018-04-23T12:46:40.143Z,931.78
2018-04-23T12:47:40.195Z,931.76
2018-04-23T12:48:40.232Z,931.79
2018-04-23T12:49:40.300Z,931.78
2018-04-23T12:51:40.405Z,931.82
2018-04-23T12:52:40.450Z,931.81
2018-04-23T12:53:40.519Z,931.80
2018-04-23T12:55:40.625Z,931.85
2018-04-23T12:56:40.688Z,931.85
2018-04-23T12:57:40.736Z,931.85
2018-04-23T12:58:40.795Z,931.92
2018-04-23T12:59:40.864Z,931.88